createdAt,value
2022-11-08T04:42:46.578Z,4.63
2022-11-08T04:45:49.593Z,4.66
2022-11-08T04:48:54.523Z,4.73
2022-11-08T04:51:57.331Z,4.75
2022-11-08T04:54:59.811Z,4.83
2022-11-08T04:58:02.543Z,4.83
2022-11-08T05:01:07.627Z,4.89
2022-11-08T05:04:10.451Z,4.88
2022-11-08T05:07:12.928Z,4.93
2022-11-08T05:10:16.089Z,5.00
2022-11-08T05:13:19.573Z,5.13
2022-11-08T05:16:33.382Z,5.27
2022-11-08T05:19:54.699Z,5.36
2022-11-08T05:23:20.230Z,5.34
2022-11-08T05:26:23.795Z,5.53
2022-11-08T05:29:26.536Z,5.59
2022-11-08T05:32:28.935Z,5.65
2022-11-08T05:35:33.976Z,5.63
2022-11-08T05:38:37.290Z,5.74
2022-11-08T05:41:40.134Z,5.75
2022-11-08T05:44:42.665Z,5.76
2022-11-08T05:47:46.176Z,5.74
2022-11-08T05:50:49.975Z,5.68
2022-11-08T05:53:54.815Z,5.68
2022-11-08T05:56:57.367Z,5.62
2022-11-08T06:00:00.284Z,5.70
2022-11-08T06:03:04.511Z,5.75
2022-11-08T06:06:10.573Z,5.72
2022-11-08T06:09:13.249Z,5.75
2022-11-08T06:12:16.138Z,5.73
2022-11-08T06:15:18.743Z,5.83
2022-11-08T06:18:21.585Z,5.81
2022-11-08T06:21:24.205Z,5.90
2022-11-08T06:24:27.163Z,5.87
2022-11-08T06:27:30.257Z,5.85
2022-11-08T06:30:33.550Z,5.90
2022-11-08T06:33:36.128Z,6.01
2022-11-08T06:36:38.910Z,6.02
2022-11-08T06:39:42.654Z,6.05
2022-11-08T06:42:45.529Z,6.07
2022-11-08T06:45:48.122Z,6.19
2022-11-08T06:48:51.121Z,6.33
2022-11-08T06:51:54.318Z,6.36
2022-11-08T06:54:57.747Z,6.43
2022-11-08T06:58:00.991Z,6.52
2022-11-08T07:01:06.203Z,6.53
2022-11-08T07:04:09.080Z,6.43
2022-11-08T07:07:11.833Z,6.38
2022-11-08T07:10:14.482Z,6.45
2022-11-08T07:13:17.754Z,6.55
2022-11-08T07:16:20.661Z,6.60
2022-11-08T07:19:23.555Z,6.81
2022-11-08T07:22:26.163Z,6.81
2022-11-08T07:25:30.636Z,6.95
2022-11-08T07:28:33.219Z,7.03
2022-11-08T07:31:36.115Z,6.95
2022-11-08T07:34:38.570Z,6.97
2022-11-08T07:37:41.421Z,7.05
2022-11-08T07:40:44.933Z,7.12
2022-11-08T07:43:49.207Z,6.99
2022-11-08T07:46:51.924Z,7.10
2022-11-08T07:49:54.766Z,7.28
2022-11-08T07:52:58.797Z,7.35
2022-11-08T07:56:02.280Z,7.36
2022-11-08T07:59:04.855Z,7.22
2022-11-08T08:02:09.393Z,7.42
2022-11-08T08:05:12.369Z,7.53
2022-11-08T08:08:14.972Z,7.37
2022-11-08T08:11:20.081Z,7.62
2022-11-08T08:14:22.682Z,7.13
2022-11-08T08:17:27.595Z,7.40
2022-11-08T08:20:30.738Z,7.71
2022-11-08T08:23:33.516Z,8.00
2022-11-08T08:26:36.177Z,8.07
2022-11-08T08:29:39.063Z,8.15
2022-11-08T08:32:41.864Z,8.28
2022-11-08T08:35:44.635Z,8.15
2022-11-08T08:38:47.153Z,8.13
2022-11-08T08:41:49.977Z,8.11
2022-11-08T08:44:52.537Z,8.32
2022-11-08T08:47:59.242Z,8.42
2022-11-08T08:51:01.855Z,8.41
2022-11-08T08:54:04.796Z,8.44
2022-11-08T08:57:07.296Z,8.58
2022-11-08T09:03:33.998Z,8.54
2022-11-08T09:06:37.391Z,8.64
2022-11-08T09:09:40.027Z,8.71
2022-11-08T09:12:42.709Z,8.67
2022-11-08T09:15:45.637Z,8.76
2022-11-08T09:18:48.703Z,8.83
2022-11-08T09:21:51.984Z,9.05
2022-11-08T09:24:54.718Z,9.05
2022-11-08T09:27:57.274Z,9.03
2022-11-08T09:31:04.785Z,9.10
2022-11-08T09:34:07.223Z,9.00
2022-11-08T09:37:10.000Z,9.20
2022-11-08T09:40:40.750Z,9.38
2022-11-08T09:43:52.933Z,9.40
2022-11-08T09:47:02.447Z,9.49
2022-11-08T09:50:20.516Z,9.70
2022-11-08T09:53:47.863Z,9.99
2022-11-08T09:56:53.817Z,9.94
2022-11-08T10:00:05.013Z,10.01
2022-11-08T10:03:16.608Z,10.17
2022-11-08T10:06:48.480Z,10.20
2022-11-08T10:10:08.851Z,10.59
2022-11-08T10:13:38.071Z,10.94
2022-11-08T10:17:05.349Z,11.17
2022-11-08T10:20:17.153Z,11.17
2022-11-08T10:23:29.016Z,11.21
2022-11-08T10:26:42.608Z,11.08
2022-11-08T10:29:46.408Z,10.84
2022-11-08T10:32:55.808Z,10.88
2022-11-08T10:36:08.030Z,10.58
2022-11-08T10:39:26.116Z,10.46
2022-11-08T10:42:37.476Z,10.38
2022-11-08T10:45:40.527Z,10.64
2022-11-08T10:48:43.040Z,11.37
2022-11-08T10:51:47.624Z,11.88
2022-11-08T10:54:53.394Z,12.03
2022-11-08T10:57:56.124Z,11.90
2022-11-08T11:01:35.819Z,12.10
2022-11-08T11:04:38.741Z,12.09
2022-11-08T11:07:44.459Z,12.08
2022-11-08T11:10:49.209Z,11.89
2022-11-08T11:14:22.165Z,11.72
2022-11-08T11:17:35.504Z,11.51
2022-11-08T11:20:44.201Z,11.16
2022-11-08T11:23:55.774Z,11.06
2022-11-08T11:27:34.676Z,11.18
2022-11-08T11:30:37.656Z,11.35
2022-11-08T11:33:46.365Z,11.65
2022-11-08T11:37:19.404Z,11.70
2022-11-08T11:40:44.099Z,11.74
2022-11-08T11:44:19.002Z,12.01
2022-11-08T11:47:30.651Z,12.28
2022-11-08T11:50:38.563Z,12.28
2022-11-08T11:53:47.538Z,12.44
2022-11-08T11:57:14.411Z,12.62
2022-11-08T12:00:17.558Z,12.48
2022-11-08T12:03:38.393Z,12.57
2022-11-08T12:07:10.061Z,12.72
2022-11-08T12:10:16.268Z,12.70
2022-11-08T12:13:38.186Z,12.72
2022-11-08T12:16:47.811Z,13.06
2022-11-08T12:20:26.580Z,13.39
2022-11-08T12:23:45.821Z,13.38
2022-11-08T12:27:00.415Z,13.48
2022-11-08T12:30:11.750Z,13.79
2022-11-08T12:33:21.518Z,14.06
2022-11-08T12:36:27.253Z,14.29
2022-11-08T12:39:41.018Z,14.44
2022-11-08T12:42:55.889Z,14.28
2022-11-08T12:45:58.509Z,14.42
2022-11-08T12:49:20.106Z,14.46
2022-11-08T12:52:44.484Z,14.52
2022-11-08T12:55:48.644Z,14.71
2022-11-08T12:58:53.738Z,14.77
2022-11-08T13:01:57.116Z,14.85
2022-11-08T13:05:13.157Z,14.92
2022-11-08T13:08:24.624Z,14.88
2022-11-08T13:11:57.908Z,15.22
2022-11-08T13:15:01.481Z,15.42
2022-11-08T13:18:07.001Z,15.39
2022-11-08T13:21:28.194Z,15.54
2022-11-08T13:24:48.801Z,16.07
2022-11-08T13:27:51.749Z,16.42
2022-11-08T13:31:01.919Z,16.68
2022-11-08T13:34:13.916Z,16.96
2022-11-08T13:37:37.211Z,18.07
2022-11-08T13:40:46.155Z,19.00
2022-11-08T13:43:50.473Z,19.90
2022-11-08T13:46:53.287Z,19.21
2022-11-08T13:50:38.527Z,19.30
2022-11-08T13:53:54.480Z,18.07
2022-11-08T13:57:00.943Z,17.13
2022-11-08T14:00:08.940Z,16.28
2022-11-08T14:03:32.928Z,15.61
2022-11-08T14:06:39.088Z,14.91
2022-11-08T14:09:56.535Z,14.33
2022-11-08T14:13:11.438Z,13.89
2022-11-08T14:16:23.254Z,13.63
2022-11-08T14:19:32.947Z,13.32
2022-11-08T14:22:35.580Z,12.99
2022-11-08T14:25:40.418Z,12.90
2022-11-08T14:28:45.110Z,12.80
2022-11-08T14:31:48.576Z,12.62
2022-11-08T14:34:50.952Z,12.41
2022-11-08T14:37:53.944Z,12.16
2022-11-08T14:40:59.987Z,11.94
2022-11-08T14:44:04.120Z,11.80
2022-11-08T14:47:06.764Z,11.61
2022-11-08T14:50:22.012Z,11.52
2022-11-08T14:53:27.833Z,11.45
2022-11-08T14:56:38.522Z,11.28
2022-11-08T14:59:41.439Z,11.13
2022-11-08T15:02:50.776Z,11.05
2022-11-08T15:05:59.525Z,10.98
2022-11-08T15:09:04.996Z,10.80
2022-11-08T15:12:15.177Z,10.59
2022-11-08T15:15:26.913Z,10.36
2022-11-08T15:18:33.674Z,10.17
2022-11-08T15:21:48.438Z,9.89
2022-11-08T15:25:01.953Z,9.69
2022-11-08T15:28:20.192Z,9.74
2022-11-08T15:31:28.166Z,9.53
2022-11-08T15:34:37.461Z,9.58
2022-11-08T15:37:42.676Z,9.60
2022-11-08T15:40:51.554Z,9.62
2022-11-08T15:44:16.792Z,9.52
2022-11-08T15:47:37.095Z,9.46
2022-11-08T15:50:42.599Z,9.44
2022-11-08T15:53:45.682Z,9.43
2022-11-08T15:56:51.147Z,9.27
2022-11-08T15:59:54.363Z,9.22
2022-11-08T16:02:57.699Z,9.11
2022-11-08T16:06:01.024Z,9.08
2022-11-08T16:09:04.376Z,9.03
2022-11-08T16:12:14.367Z,8.95
2022-11-08T16:15:21.874Z,8.99
2022-11-08T16:18:25.562Z,8.93
2022-11-08T16:21:28.393Z,8.79
2022-11-08T16:24:31.389Z,8.78
2022-11-08T16:27:34.978Z,8.86
2022-11-08T16:30:38.372Z,8.87
